Terminal Aerodrome Forecast
Issued by NWS Charleston, WV

Home | Current Version | Previous Version | Text Only | Print | Product List | Glossary On
Versions: 1 2 3 4 5 6 7 8 9 10 11 12 13 14 15 16 17 18 19 20 21 22 23
000
FTUS41 KRLX 281500 AAA
TAFCRW
TAF AMD
KCRW 281502Z 2815/2912 25004KT P6SM -SHSN SCT030 BKN040
     FM281900 23003KT P6SM BKN050
     FM290000 00000KT P6SM BKN080=

USA.gov is the U.S. government's official web portal to all federal, state and local government web resources and services.